createdAt,value
2023-05-26T08:52:23.614Z,21.00
2023-05-26T08:54:51.177Z,21.49
2023-05-26T08:57:19.897Z,21.90
2023-05-26T08:59:48.090Z,22.12
2023-05-26T09:02:15.070Z,22.48
2023-05-26T09:04:41.877Z,22.66
2023-05-26T09:07:24.651Z,22.89
2023-05-26T09:09:54.761Z,22.76
2023-05-26T09:12:21.668Z,22.89
2023-05-26T09:14:48.582Z,23.00
2023-05-26T09:17:15.565Z,23.07
2023-05-26T09:19:42.778Z,23.05
2023-05-26T09:22:11.924Z,23.02
2023-05-26T09:24:51.866Z,23.19
2023-05-26T09:27:20.158Z,23.28
2023-05-26T09:29:53.894Z,23.03
2023-05-26T09:32:24.748Z,23.10
2023-05-26T09:34:52.663Z,23.11
2023-05-26T09:37:19.645Z,23.26
2023-05-26T09:39:46.707Z,23.03
2023-05-26T09:42:13.611Z,23.30
2023-05-26T09:44:40.818Z,23.08
2023-05-26T09:47:07.936Z,23.35
2023-05-26T09:49:34.883Z,23.17
2023-05-26T09:52:13.115Z,23.18
2023-05-26T09:54:41.350Z,23.13
2023-05-26T09:57:15.372Z,23.24
2023-05-26T09:59:43.192Z,23.34
2023-05-26T10:02:23.638Z,23.25
2023-05-26T10:04:51.542Z,23.15
2023-05-26T10:07:20.268Z,23.25
2023-05-26T10:09:55.158Z,23.42
2023-05-26T10:12:28.192Z,23.33
2023-05-26T10:14:55.751Z,23.37
2023-05-26T10:17:26.382Z,23.48
2023-05-26T10:19:55.332Z,23.21
2023-05-26T10:22:36.915Z,23.30
2023-05-26T10:25:19.455Z,23.31
2023-05-26T10:27:55.411Z,23.30
2023-05-26T10:30:23.678Z,22.78
2023-05-26T10:32:53.618Z,22.98
2023-05-26T10:35:21.486Z,23.11
2023-05-26T10:37:56.026Z,23.13
2023-05-26T10:40:35.559Z,23.14
2023-05-26T10:43:06.732Z,23.09
2023-05-26T10:45:34.482Z,23.25
2023-05-26T10:48:13.487Z,23.07
2023-05-26T10:50:55.631Z,23.18
2023-05-26T10:53:23.530Z,23.29
2023-05-26T10:55:55.722Z,23.27
2023-05-26T10:58:47.352Z,23.40
2023-05-26T11:01:35.996Z,23.02
2023-05-26T11:04:10.324Z,23.10
2023-05-26T11:06:58.019Z,23.39
2023-05-26T11:09:27.170Z,23.33
2023-05-26T11:11:58.829Z,23.25
2023-05-26T11:14:27.799Z,22.95
2023-05-26T11:16:59.797Z,23.11
2023-05-26T11:19:39.981Z,23.32
2023-05-26T11:22:08.963Z,23.23
2023-05-26T11:24:36.613Z,23.32
2023-05-26T11:27:04.964Z,23.39
2023-05-26T11:29:32.991Z,23.29
2023-05-26T11:32:00.234Z,23.30
2023-05-26T11:34:27.398Z,23.34
2023-05-26T11:36:55.373Z,23.33
2023-05-26T11:39:23.507Z,23.17
2023-05-26T11:41:50.927Z,23.19
2023-05-26T11:44:17.906Z,23.03
2023-05-26T11:46:48.270Z,22.97
2023-05-26T11:49:16.536Z,23.11
2023-05-26T11:51:48.116Z,23.05
2023-05-26T11:54:16.247Z,22.73
2023-05-26T11:56:45.046Z,22.80
2023-05-26T11:59:17.687Z,22.75
2023-05-26T12:01:45.889Z,22.96
2023-05-26T12:04:13.549Z,23.05
2023-05-26T12:06:44.853Z,22.95
2023-05-26T12:09:22.770Z,23.19
2023-05-26T12:11:51.981Z,23.33
2023-05-26T12:14:19.090Z,23.28
2023-05-26T12:16:48.036Z,23.37
2023-05-26T12:19:17.743Z,23.26
2023-05-26T12:21:49.352Z,23.35
2023-05-26T12:24:30.261Z,23.39
2023-05-26T12:26:57.525Z,23.50
2023-05-26T12:29:24.348Z,23.42
2023-05-26T12:31:53.288Z,23.32
2023-05-26T12:34:21.074Z,23.11
2023-05-26T12:36:48.406Z,23.30
2023-05-26T12:39:16.087Z,23.27
2023-05-26T12:41:43.516Z,23.14
2023-05-26T12:44:10.470Z,23.21
2023-05-26T12:46:40.585Z,23.23
2023-05-26T12:49:11.474Z,23.13
2023-05-26T12:51:39.721Z,23.12
2023-05-26T12:54:07.811Z,23.18
2023-05-26T12:56:34.802Z,23.17
2023-05-26T12:59:10.526Z,23.14
2023-05-26T13:01:44.843Z,22.98
2023-05-26T13:04:11.903Z,23.11
2023-05-26T13:06:38.818Z,23.05
2023-05-26T13:09:06.014Z,23.12
2023-05-26T13:11:32.858Z,23.12
2023-05-26T13:13:59.718Z,23.22
2023-05-26T13:16:27.092Z,23.08
2023-05-26T13:18:54.200Z,22.63
2023-05-26T13:21:21.085Z,22.85
2023-05-26T13:23:48.164Z,22.91
2023-05-26T13:26:14.973Z,22.80
2023-05-26T13:28:41.798Z,22.70
2023-05-26T13:31:08.942Z,22.86
2023-05-26T13:33:35.825Z,22.57
2023-05-26T13:36:02.650Z,22.67
2023-05-26T13:38:29.399Z,22.64
2023-05-26T13:41:00.157Z,22.76
2023-05-26T13:43:27.461Z,22.81
2023-05-26T13:45:55.084Z,22.81
2023-05-26T13:48:25.615Z,22.89
2023-05-26T13:50:53.596Z,22.79
2023-05-26T13:53:20.640Z,22.85
2023-05-26T13:55:47.429Z,22.91
2023-05-26T13:58:14.930Z,22.92
2023-05-26T14:00:41.971Z,22.89
2023-05-26T14:03:08.870Z,22.75
2023-05-26T14:05:35.937Z,22.74
2023-05-26T14:08:07.750Z,22.69
2023-05-26T14:10:35.284Z,22.86
2023-05-26T14:13:02.471Z,22.87
2023-05-26T14:15:30.728Z,22.74
2023-05-26T14:18:07.466Z,22.64
2023-05-26T14:22:10.222Z,22.55
2023-05-26T14:23:24.261Z,22.61
2023-05-26T14:25:53.767Z,22.57
2023-05-26T14:28:20.545Z,22.66
2023-05-26T14:30:47.770Z,22.61
2023-05-26T14:33:14.775Z,22.52
2023-05-26T14:35:42.169Z,22.55
2023-05-26T14:38:09.010Z,22.59
2023-05-26T14:40:38.121Z,22.27
2023-05-26T14:43:05.213Z,22.32
2023-05-26T14:45:32.587Z,22.30
2023-05-26T14:47:59.576Z,22.31
2023-05-26T14:50:26.648Z,22.37
2023-05-26T14:52:53.458Z,22.26
2023-05-26T14:55:21.515Z,22.22
2023-05-26T14:57:48.300Z,22.36
2023-05-26T15:00:15.878Z,22.36
2023-05-26T15:02:43.007Z,22.32
2023-05-26T15:05:10.394Z,22.18
2023-05-26T15:07:38.045Z,22.14
2023-05-26T15:10:06.157Z,22.07
2023-05-26T15:12:36.455Z,22.11
2023-05-26T15:15:03.582Z,21.94
2023-05-26T15:17:30.747Z,22.08
2023-05-26T15:19:58.894Z,21.91
2023-05-26T15:22:25.989Z,21.95
2023-05-26T15:24:53.061Z,22.00
2023-05-26T15:27:20.113Z,21.80
2023-05-26T15:29:47.065Z,21.88
2023-05-26T15:32:17.015Z,21.96
2023-05-26T15:34:45.224Z,21.90
2023-05-26T15:37:12.192Z,21.79
2023-05-26T15:39:39.158Z,21.79
2023-05-26T15:42:07.521Z,21.75
2023-05-26T15:44:35.585Z,21.73
2023-05-26T15:47:02.810Z,21.78
2023-05-26T15:49:29.817Z,21.76
2023-05-26T15:51:56.746Z,21.82
2023-05-26T15:54:23.714Z,21.61
2023-05-26T15:56:50.744Z,21.58
2023-05-26T15:59:18.172Z,21.51
2023-05-26T16:01:45.021Z,21.48
2023-05-26T16:04:12.136Z,21.54
2023-05-26T16:06:39.055Z,21.60
2023-05-26T16:09:06.466Z,21.59
2023-05-26T16:11:34.302Z,21.47
2023-05-26T16:14:01.282Z,21.47
2023-05-26T16:16:28.668Z,21.38
2023-05-26T16:18:56.053Z,21.28
2023-05-26T16:21:22.906Z,21.17
2023-05-26T16:23:49.994Z,21.06
2023-05-26T16:26:16.978Z,21.22
2023-05-26T16:28:43.852Z,21.22
2023-05-26T16:31:11.183Z,21.24
2023-05-26T16:33:38.188Z,21.30
2023-05-26T16:36:05.222Z,21.34
2023-05-26T16:38:32.306Z,21.16
2023-05-26T16:40:59.468Z,21.16
2023-05-26T16:43:46.907Z,21.14
2023-05-26T16:46:13.258Z,21.17
2023-05-26T16:48:40.279Z,21.13
2023-05-26T16:51:07.123Z,21.10
2023-05-26T16:53:33.973Z,21.05
2023-05-26T16:56:01.546Z,20.87
2023-05-26T16:58:28.863Z,20.88
2023-05-26T17:00:55.775Z,20.81
2023-05-26T17:03:22.783Z,20.77
2023-05-26T17:05:49.618Z,20.78
2023-05-26T17:08:16.504Z,20.75
2023-05-26T17:10:45.483Z,20.84
2023-05-26T17:13:12.659Z,20.75
2023-05-26T17:15:40.197Z,20.75
2023-05-26T17:18:07.205Z,20.59
2023-05-26T17:20:34.916Z,20.65
2023-05-26T17:23:02.707Z,20.73
2023-05-26T17:25:29.601Z,20.63
2023-05-26T17:27:57.048Z,20.26
2023-05-26T17:30:24.113Z,20.19
2023-05-26T17:32:51.313Z,20.21
2023-05-26T17:35:18.394Z,20.23
2023-05-26T17:37:45.278Z,20.14
2023-05-26T17:40:12.407Z,20.10
2023-05-26T17:42:40.215Z,20.01
2023-05-26T17:45:07.892Z,19.93
2023-05-26T17:47:34.784Z,19.92
2023-05-26T17:50:01.716Z,19.63
2023-05-26T17:52:28.505Z,19.56
2023-05-26T17:54:58.598Z,19.73
2023-05-26T17:57:25.483Z,19.72
